Arctic Village

About
Name: Arctic Village
Identifier:  ARC/PARC
Local Time:  20. Aug 06:04 AKDT
Location
Arctic Village
  United States

Flights per Day
0 flights
Distance: 127km (79mi)
Punctuality
66% (0 flights per day delayed)
Delay Average: 12 minutes
Current Weather
 14 C (Humidity: 87%)
  7kt (12km/h / 8mph) from 360°
  Overcast at 6,000 feet (1,828 meter)
  16km (10 mi.)
 Light/Moderate: Rain
 METAR PARC 260356Z AUTO 36007KT 340V060 10SM -RA OVC060 14/12 A2974 RMK AO2 SLP093 P0001 T01440122

Current Flights

Departures
Number Departure To Airline
Arrivals
Number Arrival From Airline

Current Delays

Departures
N/A
Arrivals
N/A

Destinations

Top Destinations
Airport Flights
per week
Seats
per week
  Fairbanks (FAI) 0 8 0 1

Airlines & Planes

Top Airlines
Airline Flights
per Day
Seats
per Day
  Era Alaska 0 1
Top Plane Types
Model Flights Seats
Bombardier Dash 8-100 0.0/day 1/day 1.2333333333333334